sensor_id;sensor_type;location;lat;lon;timestamp;P1;durP1;ratioP1;P2;durP2;ratioP2
18973;SDS011;9621;48.690;9.466;2023-07-28T07:01:35;8.07;;;4.90;;
18973;SDS011;9621;48.690;9.466;2023-07-28T07:04:02;8.80;;;6.18;;
18973;SDS011;9621;48.690;9.466;2023-07-28T07:06:29;7.80;;;5.65;;
18973;SDS011;9621;48.690;9.466;2023-07-28T07:08:56;10.93;;;6.30;;
18973;SDS011;9621;48.690;9.466;2023-07-28T07:11:24;8.88;;;5.43;;
18973;SDS011;9621;48.690;9.466;2023-07-28T07:13:50;5.85;;;4.93;;
18973;SDS011;9621;48.690;9.466;2023-07-28T07:16:17;7.25;;;5.18;;
18973;SDS011;9621;48.690;9.466;2023-07-28T07:18:46;9.30;;;5.32;;
18973;SDS011;9621;48.690;9.466;2023-07-28T07:21:12;7.32;;;4.38;;
18973;SDS011;9621;48.690;9.466;2023-07-28T07:23:39;4.88;;;4.38;;
18973;SDS011;9621;48.690;9.466;2023-07-28T07:26:07;6.97;;;4.38;;
18973;SDS011;9621;48.690;9.466;2023-07-28T07:28:33;6.15;;;4.82;;
18973;SDS011;9621;48.690;9.466;2023-07-28T07:31:01;5.35;;;3.90;;
18973;SDS011;9621;48.690;9.466;2023-07-28T07:33:28;5.95;;;4.00;;
18973;SDS011;9621;48.690;9.466;2023-07-28T07:35:56;5.38;;;4.22;;
18973;SDS011;9621;48.690;9.466;2023-07-28T07:38:23;5.35;;;4.22;;
18973;SDS011;9621;48.690;9.466;2023-07-28T07:40:50;5.68;;;4.30;;
18973;SDS011;9621;48.690;9.466;2023-07-28T07:43:17;6.22;;;3.58;;
18973;SDS011;9621;48.690;9.466;2023-07-28T07:45:45;5.35;;;3.97;;
18973;SDS011;9621;48.690;9.466;2023-07-28T07:48:15;6.90;;;4.40;;
18973;SDS011;9621;48.690;9.466;2023-07-28T07:50:42;5.05;;;3.90;;
18973;SDS011;9621;48.690;9.466;2023-07-28T07:53:10;4.88;;;3.95;;
18973;SDS011;9621;48.690;9.466;2023-07-28T07:55:37;8.05;;;4.55;;
18973;SDS011;9621;48.690;9.466;2023-07-28T07:58:04;4.20;;;3.80;;
18973;SDS011;9621;48.690;9.466;2023-07-28T08:00:30;4.50;;;4.10;;
18973;SDS011;9621;48.690;9.466;2023-07-28T08:03:09;7.05;;;4.10;;
18973;SDS011;9621;48.690;9.466;2023-07-28T08:05:36;8.63;;;4.00;;
18973;SDS011;9621;48.690;9.466;2023-07-28T08:08:03;4.82;;;3.80;;
18973;SDS011;9621;48.690;9.466;2023-07-28T08:10:33;5.93;;;3.70;;
18973;SDS011;9621;48.690;9.466;2023-07-28T08:13:00;7.65;;;4.00;;
18973;SDS011;9621;48.690;9.466;2023-07-28T08:15:29;5.38;;;4.00;;
18973;SDS011;9621;48.690;9.466;2023-07-28T08:17:55;6.47;;;4.05;;
18973;SDS011;9621;48.690;9.466;2023-07-28T08:20:22;4.20;;;3.80;;
18973;SDS011;9621;48.690;9.466;2023-07-28T08:22:49;5.45;;;3.97;;
18973;SDS011;9621;48.690;9.466;2023-07-28T08:25:16;6.72;;;3.92;;
18973;SDS011;9621;48.690;9.466;2023-07-28T08:27:45;4.82;;;3.65;;
18973;SDS011;9621;48.690;9.466;2023-07-28T08:30:12;3.45;;;3.03;;
18973;SDS011;9621;48.690;9.466;2023-07-28T08:32:40;5.00;;;3.47;;
18973;SDS011;9621;48.690;9.466;2023-07-28T08:35:08;4.35;;;3.28;;
18973;SDS011;9621;48.690;9.466;2023-07-28T08:37:35;5.28;;;3.63;;
18973;SDS011;9621;48.690;9.466;2023-07-28T08:40:02;5.85;;;2.97;;
18973;SDS011;9621;48.690;9.466;2023-07-28T08:42:30;4.43;;;2.75;;
18973;SDS011;9621;48.690;9.466;2023-07-28T08:45:03;4.03;;;3.33;;
18973;SDS011;9621;48.690;9.466;2023-07-28T08:47:31;3.92;;;2.97;;
18973;SDS011;9621;48.690;9.466;2023-07-28T08:49:58;3.47;;;3.08;;
18973;SDS011;9621;48.690;9.466;2023-07-28T08:52:26;4.95;;;2.95;;
18973;SDS011;9621;48.690;9.466;2023-07-28T08:54:53;4.60;;;2.83;;
18973;SDS011;9621;48.690;9.466;2023-07-28T08:57:20;5.75;;;3.05;;
18973;SDS011;9621;48.690;9.466;2023-07-28T08:59:47;4.05;;;3.00;;
18973;SDS011;9621;48.690;9.466;2023-07-28T09:02:16;3.80;;;3.30;;
18973;SDS011;9621;48.690;9.466;2023-07-28T09:04:45;5.05;;;2.83;;
18973;SDS011;9621;48.690;9.466;2023-07-28T09:07:15;3.60;;;3.00;;
18973;SDS011;9621;48.690;9.466;2023-07-28T09:09:42;7.57;;;3.42;;
18973;SDS011;9621;48.690;9.466;2023-07-28T09:12:09;2.85;;;2.45;;
18973;SDS011;9621;48.690;9.466;2023-07-28T09:14:36;4.78;;;2.85;;
18973;SDS011;9621;48.690;9.466;2023-07-28T09:17:07;3.97;;;2.80;;
18973;SDS011;9621;48.690;9.466;2023-07-28T09:19:49;2.85;;;2.20;;
18973;SDS011;9621;48.690;9.466;2023-07-28T09:22:17;4.25;;;2.65;;
18973;SDS011;9621;48.690;9.466;2023-07-28T09:24:45;5.93;;;2.75;;
18973;SDS011;9621;48.690;9.466;2023-07-28T09:27:19;3.40;;;2.38;;
18973;SDS011;9621;48.690;9.466;2023-07-28T09:29:47;4.40;;;2.13;;
18973;SDS011;9621;48.690;9.466;2023-07-28T09:32:15;5.70;;;3.05;;
18973;SDS011;9621;48.690;9.466;2023-07-28T09:34:43;2.72;;;2.35;;
18973;SDS011;9621;48.690;9.466;2023-07-28T09:37:11;3.75;;;2.30;;
18973;SDS011;9621;48.690;9.466;2023-07-28T09:39:39;4.53;;;2.70;;
18973;SDS011;9621;48.690;9.466;2023-07-28T09:42:07;5.28;;;2.60;;
18973;SDS011;9621;48.690;9.466;2023-07-28T09:44:35;3.50;;;2.30;;
18973;SDS011;9621;48.690;9.466;2023-07-28T09:47:02;6.00;;;2.53;;
18973;SDS011;9621;48.690;9.466;2023-07-28T09:49:34;3.22;;;2.33;;
18973;SDS011;9621;48.690;9.466;2023-07-28T09:52:04;28.20;;;5.47;;
18973;SDS011;9621;48.690;9.466;2023-07-28T09:54:33;9.00;;;4.03;;
18973;SDS011;9621;48.690;9.466;2023-07-28T09:57:04;4.22;;;2.78;;
18973;SDS011;9621;48.690;9.466;2023-07-28T09:59:39;4.40;;;2.60;;
18973;SDS011;9621;48.690;9.466;2023-07-28T10:02:07;3.33;;;2.72;;
18973;SDS011;9621;48.690;9.466;2023-07-28T10:04:34;5.45;;;2.90;;
18973;SDS011;9621;48.690;9.466;2023-07-28T10:07:02;5.22;;;2.55;;
18973;SDS011;9621;48.690;9.466;2023-07-28T10:09:31;6.18;;;3.33;;
18973;SDS011;9621;48.690;9.466;2023-07-28T10:12:00;6.78;;;2.80;;
18973;SDS011;9621;48.690;9.466;2023-07-28T10:14:28;17.02;;;3.60;;
18973;SDS011;9621;48.690;9.466;2023-07-28T10:16:56;4.55;;;2.90;;
18973;SDS011;9621;48.690;9.466;2023-07-28T10:19:25;3.95;;;2.67;;
18973;SDS011;9621;48.690;9.466;2023-07-28T10:21:58;5.05;;;2.50;;
18973;SDS011;9621;48.690;9.466;2023-07-28T10:30:12;5.03;;;2.80;;
18973;SDS011;9621;48.690;9.466;2023-07-28T10:32:41;5.25;;;2.90;;
18973;SDS011;9621;48.690;9.466;2023-07-28T10:35:09;3.05;;;2.53;;
18973;SDS011;9621;48.690;9.466;2023-07-28T10:37:48;3.85;;;2.65;;
18973;SDS011;9621;48.690;9.466;2023-07-28T10:40:22;2.75;;;2.38;;
18973;SDS011;9621;48.690;9.466;2023-07-28T10:42:52;5.80;;;2.08;;
18973;SDS011;9621;48.690;9.466;2023-07-28T10:45:19;2.88;;;2.42;;
18973;SDS011;9621;48.690;9.466;2023-07-28T10:47:47;5.90;;;2.75;;
18973;SDS011;9621;48.690;9.466;2023-07-28T10:50:15;3.28;;;2.40;;
18973;SDS011;9621;48.690;9.466;2023-07-28T10:52:42;2.53;;;2.25;;
18973;SDS011;9621;48.690;9.466;2023-07-28T10:55:13;3.53;;;2.22;;
18973;SDS011;9621;48.690;9.466;2023-07-28T10:57:40;2.67;;;2.17;;
18973;SDS011;9621;48.690;9.466;2023-07-28T11:00:10;3.30;;;2.20;;
18973;SDS011;9621;48.690;9.466;2023-07-28T11:02:40;3.08;;;2.33;;
18973;SDS011;9621;48.690;9.466;2023-07-28T11:05:12;4.60;;;2.30;;
18973;SDS011;9621;48.690;9.466;2023-07-28T11:07:47;3.75;;;2.15;;
18973;SDS011;9621;48.690;9.466;2023-07-28T11:10:14;3.30;;;1.90;;
18973;SDS011;9621;48.690;9.466;2023-07-28T11:12:43;2.60;;;2.25;;
18973;SDS011;9621;48.690;9.466;2023-07-28T11:15:13;2.28;;;2.03;;
18973;SDS011;9621;48.690;9.466;2023-07-28T11:17:41;3.67;;;2.03;;
18973;SDS011;9621;48.690;9.466;2023-07-28T11:20:14;3.72;;;2.22;;
18973;SDS011;9621;48.690;9.466;2023-07-28T11:22:42;2.95;;;2.22;;
18973;SDS011;9621;48.690;9.466;2023-07-28T11:25:10;2.85;;;2.22;;
18973;SDS011;9621;48.690;9.466;2023-07-28T11:27:37;3.13;;;2.10;;
18973;SDS011;9621;48.690;9.466;2023-07-28T11:30:04;8.10;;;2.15;;
18973;SDS011;9621;48.690;9.466;2023-07-28T11:32:36;3.90;;;2.22;;
18973;SDS011;9621;48.690;9.466;2023-07-28T11:35:04;2.58;;;1.92;;
18973;SDS011;9621;48.690;9.466;2023-07-28T11:37:34;2.00;;;1.80;;
18973;SDS011;9621;48.690;9.466;2023-07-28T11:40:02;3.38;;;2.08;;
18973;SDS011;9621;48.690;9.466;2023-07-28T11:42:32;2.83;;;2.20;;
18973;SDS011;9621;48.690;9.466;2023-07-28T11:45:00;2.55;;;1.80;;
18973;SDS011;9621;48.690;9.466;2023-07-28T11:47:28;2.67;;;1.92;;
18973;SDS011;9621;48.690;9.466;2023-07-28T11:49:57;4.68;;;1.90;;
18973;SDS011;9621;48.690;9.466;2023-07-28T11:52:28;2.10;;;1.80;;
18973;SDS011;9621;48.690;9.466;2023-07-28T11:54:56;2.25;;;1.60;;
18973;SDS011;9621;48.690;9.466;2023-07-28T11:57:24;4.28;;;2.10;;
18973;SDS011;9621;48.690;9.466;2023-07-28T11:59:52;2.80;;;1.80;;
18973;SDS011;9621;48.690;9.466;2023-07-28T12:02:24;2.55;;;2.17;;
18973;SDS011;9621;48.690;9.466;2023-07-28T12:04:51;2.58;;;1.90;;
18973;SDS011;9621;48.690;9.466;2023-07-28T12:07:26;2.15;;;1.77;;
18973;SDS011;9621;48.690;9.466;2023-07-28T12:09:54;4.72;;;1.92;;
18973;SDS011;9621;48.690;9.466;2023-07-28T12:12:25;2.35;;;1.80;;
18973;SDS011;9621;48.690;9.466;2023-07-28T12:14:53;2.33;;;2.13;;
18973;SDS011;9621;48.690;9.466;2023-07-28T12:17:22;3.75;;;1.92;;
18973;SDS011;9621;48.690;9.466;2023-07-28T12:20:01;3.50;;;1.92;;
18973;SDS011;9621;48.690;9.466;2023-07-28T12:22:36;4.15;;;1.77;;
18973;SDS011;9621;48.690;9.466;2023-07-28T12:25:04;2.70;;;1.85;;
18973;SDS011;9621;48.690;9.466;2023-07-28T12:27:31;3.58;;;1.92;;
18973;SDS011;9621;48.690;9.466;2023-07-28T12:29:58;5.20;;;2.33;;
18973;SDS011;9621;48.690;9.466;2023-07-28T12:32:26;5.80;;;2.30;;
18973;SDS011;9621;48.690;9.466;2023-07-28T12:34:53;3.90;;;2.40;;
18973;SDS011;9621;48.690;9.466;2023-07-28T12:37:20;5.22;;;2.63;;
18973;SDS011;9621;48.690;9.466;2023-07-28T12:39:48;3.65;;;2.35;;
18973;SDS011;9621;48.690;9.466;2023-07-28T12:42:15;4.18;;;2.40;;
18973;SDS011;9621;48.690;9.466;2023-07-28T12:44:42;10.00;;;3.15;;
18973;SDS011;9621;48.690;9.466;2023-07-28T12:47:09;4.93;;;2.53;;
18973;SDS011;9621;48.690;9.466;2023-07-28T12:49:36;3.60;;;3.00;;
18973;SDS011;9621;48.690;9.466;2023-07-28T12:52:04;3.10;;;2.55;;
18973;SDS011;9621;48.690;9.466;2023-07-28T12:54:33;4.45;;;3.00;;
18973;SDS011;9621;48.690;9.466;2023-07-28T12:57:02;5.50;;;3.05;;
18973;SDS011;9621;48.690;9.466;2023-07-28T12:59:29;4.03;;;2.70;;
18973;SDS011;9621;48.690;9.466;2023-07-28T13:01:56;4.80;;;3.10;;
18973;SDS011;9621;48.690;9.466;2023-07-28T13:04:23;3.65;;;3.08;;
18973;SDS011;9621;48.690;9.466;2023-07-28T13:06:50;3.33;;;2.42;;
18973;SDS011;9621;48.690;9.466;2023-07-28T13:09:17;5.50;;;3.22;;
18973;SDS011;9621;48.690;9.466;2023-07-28T13:11:43;4.43;;;2.85;;
18973;SDS011;9621;48.690;9.466;2023-07-28T13:14:12;4.10;;;2.72;;
18973;SDS011;9621;48.690;9.466;2023-07-28T13:16:39;3.63;;;2.85;;
18973;SDS011;9621;48.690;9.466;2023-07-28T13:19:06;4.30;;;2.58;;
18973;SDS011;9621;48.690;9.466;2023-07-28T13:21:33;3.92;;;2.78;;
18973;SDS011;9621;48.690;9.466;2023-07-28T13:24:00;4.38;;;3.33;;
18973;SDS011;9621;48.690;9.466;2023-07-28T13:26:28;4.70;;;2.90;;
18973;SDS011;9621;48.690;9.466;2023-07-28T13:28:55;6.45;;;3.28;;
18973;SDS011;9621;48.690;9.466;2023-07-28T13:31:25;5.45;;;3.00;;
18973;SDS011;9621;48.690;9.466;2023-07-28T13:33:52;5.00;;;2.95;;
18973;SDS011;9621;48.690;9.466;2023-07-28T13:36:19;4.35;;;2.75;;
18973;SDS011;9621;48.690;9.466;2023-07-28T13:38:49;4.53;;;2.95;;
18973;SDS011;9621;48.690;9.466;2023-07-28T13:41:15;6.07;;;3.40;;
18973;SDS011;9621;48.690;9.466;2023-07-28T13:43:42;4.55;;;2.85;;
18973;SDS011;9621;48.690;9.466;2023-07-28T13:46:09;4.63;;;3.22;;
18973;SDS011;9621;48.690;9.466;2023-07-28T13:48:38;3.92;;;3.30;;
18973;SDS011;9621;48.690;9.466;2023-07-28T13:51:06;5.40;;;3.10;;
18973;SDS011;9621;48.690;9.466;2023-07-28T13:53:33;4.95;;;2.80;;
18973;SDS011;9621;48.690;9.466;2023-07-28T13:56:00;4.88;;;2.67;;
18973;SDS011;9621;48.690;9.466;2023-07-28T13:58:27;3.50;;;3.03;;
18973;SDS011;9621;48.690;9.466;2023-07-28T14:00:54;3.85;;;2.90;;
18973;SDS011;9621;48.690;9.466;2023-07-28T14:03:21;3.45;;;2.78;;
18973;SDS011;9621;48.690;9.466;2023-07-28T14:05:49;3.97;;;2.85;;
18973;SDS011;9621;48.690;9.466;2023-07-28T14:08:16;6.30;;;3.00;;
18973;SDS011;9621;48.690;9.466;2023-07-28T14:10:43;3.42;;;2.83;;
18973;SDS011;9621;48.690;9.466;2023-07-28T14:13:10;3.85;;;2.90;;
18973;SDS011;9621;48.690;9.466;2023-07-28T14:15:37;7.55;;;2.80;;
18973;SDS011;9621;48.690;9.466;2023-07-28T14:18:04;3.45;;;2.90;;
18973;SDS011;9621;48.690;9.466;2023-07-28T14:20:31;4.68;;;3.22;;
18973;SDS011;9621;48.690;9.466;2023-07-28T14:23:00;7.85;;;3.47;;
18973;SDS011;9621;48.690;9.466;2023-07-28T14:25:27;5.70;;;3.17;;
18973;SDS011;9621;48.690;9.466;2023-07-28T14:27:54;6.38;;;3.33;;
18973;SDS011;9621;48.690;9.466;2023-07-28T14:30:21;4.90;;;3.20;;
18973;SDS011;9621;48.690;9.466;2023-07-28T14:32:48;4.88;;;3.33;;
18973;SDS011;9621;48.690;9.466;2023-07-28T14:35:14;5.05;;;3.53;;
18973;SDS011;9621;48.690;9.466;2023-07-28T14:37:41;4.18;;;3.25;;
18973;SDS011;9621;48.690;9.466;2023-07-28T14:40:10;6.47;;;3.70;;
18973;SDS011;9621;48.690;9.466;2023-07-28T14:42:38;5.80;;;3.25;;
18973;SDS011;9621;48.690;9.466;2023-07-28T14:45:06;4.13;;;3.20;;
18973;SDS011;9621;48.690;9.466;2023-07-28T14:47:34;4.70;;;3.30;;
18973;SDS011;9621;48.690;9.466;2023-07-28T14:50:04;4.32;;;3.20;;
18973;SDS011;9621;48.690;9.466;2023-07-28T14:52:31;4.70;;;3.38;;
18973;SDS011;9621;48.690;9.466;2023-07-28T14:54:59;5.50;;;3.13;;
18973;SDS011;9621;48.690;9.466;2023-07-28T14:57:27;5.35;;;3.15;;
18973;SDS011;9621;48.690;9.466;2023-07-28T14:59:54;4.22;;;2.80;;
18973;SDS011;9621;48.690;9.466;2023-07-28T15:02:20;3.92;;;2.88;;
18973;SDS011;9621;48.690;9.466;2023-07-28T15:04:48;5.15;;;2.65;;
18973;SDS011;9621;48.690;9.466;2023-07-28T15:07:15;4.35;;;2.75;;
18973;SDS011;9621;48.690;9.466;2023-07-28T15:09:43;3.30;;;2.50;;
18973;SDS011;9621;48.690;9.466;2023-07-28T15:12:09;3.65;;;2.58;;
18973;SDS011;9621;48.690;9.466;2023-07-28T15:14:38;4.88;;;2.83;;
18973;SDS011;9621;48.690;9.466;2023-07-28T15:17:05;3.38;;;2.47;;
18973;SDS011;9621;48.690;9.466;2023-07-28T15:19:32;2.40;;;2.17;;
18973;SDS011;9621;48.690;9.466;2023-07-28T15:21:59;5.38;;;2.38;;
18973;SDS011;9621;48.690;9.466;2023-07-28T15:24:26;4.85;;;2.33;;
18973;SDS011;9621;48.690;9.466;2023-07-28T15:26:52;5.32;;;2.40;;
18973;SDS011;9621;48.690;9.466;2023-07-28T15:29:19;5.72;;;2.63;;
18973;SDS011;9621;48.690;9.466;2023-07-28T15:31:48;4.63;;;2.75;;
18973;SDS011;9621;48.690;9.466;2023-07-28T15:34:15;4.13;;;2.53;;
18973;SDS011;9621;48.690;9.466;2023-07-28T15:36:42;5.72;;;2.17;;
18973;SDS011;9621;48.690;9.466;2023-07-28T15:39:09;2.55;;;2.33;;
18973;SDS011;9621;48.690;9.466;2023-07-28T15:41:36;6.72;;;2.22;;
18973;SDS011;9621;48.690;9.466;2023-07-28T15:44:03;2.67;;;2.22;;
18973;SDS011;9621;48.690;9.466;2023-07-28T15:46:30;3.03;;;2.28;;
18973;SDS011;9621;48.690;9.466;2023-07-28T15:48:58;2.35;;;2.10;;
18973;SDS011;9621;48.690;9.466;2023-07-28T15:51:25;3.42;;;2.50;;
18973;SDS011;9621;48.690;9.466;2023-07-28T15:53:52;5.38;;;2.40;;
18973;SDS011;9621;48.690;9.466;2023-07-28T15:56:18;3.80;;;2.40;;
18973;SDS011;9621;48.690;9.466;2023-07-28T15:58:45;4.60;;;2.50;;
18973;SDS011;9621;48.690;9.466;2023-07-28T16:01:12;2.72;;;2.38;;
18973;SDS011;9621;48.690;9.466;2023-07-28T16:03:39;3.30;;;2.22;;
18973;SDS011;9621;48.690;9.466;2023-07-28T16:06:07;4.80;;;2.20;;
18973;SDS011;9621;48.690;9.466;2023-07-28T16:08:34;3.53;;;2.28;;
18973;SDS011;9621;48.690;9.466;2023-07-28T16:11:01;3.03;;;2.30;;
18973;SDS011;9621;48.690;9.466;2023-07-28T16:13:29;3.95;;;2.50;;
18973;SDS011;9621;48.690;9.466;2023-07-28T16:15:57;3.28;;;2.35;;
18973;SDS011;9621;48.690;9.466;2023-07-28T16:18:24;3.47;;;2.65;;
18973;SDS011;9621;48.690;9.466;2023-07-28T16:20:52;7.95;;;4.28;;
18973;SDS011;9621;48.690;9.466;2023-07-28T16:23:20;5.97;;;3.80;;
18973;SDS011;9621;48.690;9.466;2023-07-28T16:25:47;3.97;;;2.45;;
18973;SDS011;9621;48.690;9.466;2023-07-28T16:28:14;3.45;;;2.50;;
18973;SDS011;9621;48.690;9.466;2023-07-28T16:30:41;5.03;;;2.60;;
18973;SDS011;9621;48.690;9.466;2023-07-28T16:33:08;4.60;;;2.90;;
18973;SDS011;9621;48.690;9.466;2023-07-28T16:35:36;4.07;;;2.53;;
18973;SDS011;9621;48.690;9.466;2023-07-28T16:38:02;2.88;;;2.55;;
18973;SDS011;9621;48.690;9.466;2023-07-28T16:40:31;4.30;;;2.80;;
18973;SDS011;9621;48.690;9.466;2023-07-28T16:42:58;10.40;;;3.42;;
18973;SDS011;9621;48.690;9.466;2023-07-28T16:45:25;3.80;;;3.10;;
18973;SDS011;9621;48.690;9.466;2023-07-28T16:47:52;4.18;;;2.40;;
18973;SDS011;9621;48.690;9.466;2023-07-28T16:50:19;3.80;;;2.83;;
18973;SDS011;9621;48.690;9.466;2023-07-28T16:52:45;4.53;;;2.80;;
18973;SDS011;9621;48.690;9.466;2023-07-28T16:55:12;5.30;;;3.05;;
18973;SDS011;9621;48.690;9.466;2023-07-28T16:57:40;4.18;;;2.88;;
18973;SDS011;9621;48.690;9.466;2023-07-28T17:00:08;3.33;;;2.85;;
18973;SDS011;9621;48.690;9.466;2023-07-28T17:02:36;4.93;;;2.72;;
18973;SDS011;9621;48.690;9.466;2023-07-28T17:05:03;4.97;;;3.40;;
18973;SDS011;9621;48.690;9.466;2023-07-28T17:07:30;4.22;;;2.90;;
18973;SDS011;9621;48.690;9.466;2023-07-28T17:09:58;4.18;;;3.25;;
18973;SDS011;9621;48.690;9.466;2023-07-28T17:12:26;4.63;;;3.28;;
18973;SDS011;9621;48.690;9.466;2023-07-28T17:14:54;3.90;;;3.20;;
18973;SDS011;9621;48.690;9.466;2023-07-28T17:17:21;5.18;;;3.33;;
18973;SDS011;9621;48.690;9.466;2023-07-28T17:19:48;6.18;;;3.33;;
18973;SDS011;9621;48.690;9.466;2023-07-28T17:22:15;4.47;;;3.40;;
18973;SDS011;9621;48.690;9.466;2023-07-28T17:24:42;5.57;;;3.88;;
18973;SDS011;9621;48.690;9.466;2023-07-28T17:27:09;6.25;;;3.53;;
18973;SDS011;9621;48.690;9.466;2023-07-28T17:29:36;3.95;;;3.35;;
18973;SDS011;9621;48.690;9.466;2023-07-28T17:32:04;5.25;;;4.05;;
18973;SDS011;9621;48.690;9.466;2023-07-28T17:34:31;5.97;;;3.70;;
18973;SDS011;9621;48.690;9.466;2023-07-28T17:36:58;4.22;;;3.72;;
18973;SDS011;9621;48.690;9.466;2023-07-28T17:39:25;4.75;;;3.67;;
18973;SDS011;9621;48.690;9.466;2023-07-28T17:41:52;4.53;;;3.45;;
18973;SDS011;9621;48.690;9.466;2023-07-28T17:44:19;4.13;;;3.05;;
18973;SDS011;9621;48.690;9.466;2023-07-28T17:46:46;4.03;;;3.58;;
18973;SDS011;9621;48.690;9.466;2023-07-28T17:49:14;4.47;;;3.50;;
18973;SDS011;9621;48.690;9.466;2023-07-28T17:51:41;4.75;;;3.75;;
18973;SDS011;9621;48.690;9.466;2023-07-28T17:54:08;4.47;;;3.58;;
18973;SDS011;9621;48.690;9.466;2023-07-28T17:56:35;5.55;;;3.80;;
18973;SDS011;9621;48.690;9.466;2023-07-28T17:59:02;4.50;;;3.60;;
18973;SDS011;9621;48.690;9.466;2023-07-28T18:01:29;5.72;;;4.32;;
18973;SDS011;9621;48.690;9.466;2023-07-28T18:03:56;6.63;;;3.95;;
18973;SDS011;9621;48.690;9.466;2023-07-28T18:06:24;6.70;;;4.38;;
18973;SDS011;9621;48.690;9.466;2023-07-28T18:08:51;4.63;;;3.90;;
18973;SDS011;9621;48.690;9.466;2023-07-28T18:11:18;4.25;;;3.55;;
18973;SDS011;9621;48.690;9.466;2023-07-28T18:13:45;4.82;;;4.05;;
18973;SDS011;9621;48.690;9.466;2023-07-28T18:16:12;4.00;;;3.45;;
18973;SDS011;9621;48.690;9.466;2023-07-28T18:18:39;5.53;;;3.60;;
18973;SDS011;9621;48.690;9.466;2023-07-28T18:21:06;5.63;;;4.32;;
18973;SDS011;9621;48.690;9.466;2023-07-28T18:23:34;4.93;;;3.55;;
18973;SDS011;9621;48.690;9.466;2023-07-28T18:26:02;5.20;;;3.65;;
18973;SDS011;9621;48.690;9.466;2023-07-28T18:28:29;7.65;;;3.75;;
18973;SDS011;9621;48.690;9.466;2023-07-28T18:30:56;7.55;;;3.90;;
18973;SDS011;9621;48.690;9.466;2023-07-28T18:33:23;4.63;;;3.72;;
18973;SDS011;9621;48.690;9.466;2023-07-28T18:35:50;5.72;;;3.67;;
18973;SDS011;9621;48.690;9.466;2023-07-28T18:38:18;5.50;;;4.15;;
18973;SDS011;9621;48.690;9.466;2023-07-28T18:40:47;7.10;;;4.00;;
18973;SDS011;9621;48.690;9.466;2023-07-28T18:43:13;4.95;;;3.67;;
18973;SDS011;9621;48.690;9.466;2023-07-28T18:45:40;4.82;;;4.03;;
18973;SDS011;9621;48.690;9.466;2023-07-28T18:48:07;4.63;;;3.95;;
18973;SDS011;9621;48.690;9.466;2023-07-28T18:50:34;6.20;;;4.07;;
18973;SDS011;9621;48.690;9.466;2023-07-28T18:53:02;4.80;;;3.78;;
18973;SDS011;9621;48.690;9.466;2023-07-28T18:55:28;4.82;;;3.95;;
18973;SDS011;9621;48.690;9.466;2023-07-28T18:57:57;5.35;;;4.20;;
18973;SDS011;9621;48.690;9.466;2023-07-28T19:00:24;7.10;;;3.90;;
18973;SDS011;9621;48.690;9.466;2023-07-28T19:02:51;6.40;;;4.35;;
18973;SDS011;9621;48.690;9.466;2023-07-28T19:05:20;6.32;;;4.03;;
18973;SDS011;9621;48.690;9.466;2023-07-28T19:07:47;4.88;;;3.78;;
18973;SDS011;9621;48.690;9.466;2023-07-28T19:10:14;5.25;;;3.80;;
18973;SDS011;9621;48.690;9.466;2023-07-28T19:12:41;6.63;;;4.22;;
18973;SDS011;9621;48.690;9.466;2023-07-28T19:15:09;6.45;;;3.67;;
18973;SDS011;9621;48.690;9.466;2023-07-28T19:17:37;3.92;;;3.47;;
18973;SDS011;9621;48.690;9.466;2023-07-28T19:20:04;4.40;;;3.40;;
18973;SDS011;9621;48.690;9.466;2023-07-28T19:22:34;3.80;;;2.95;;
18973;SDS011;9621;48.690;9.466;2023-07-28T19:25:01;4.97;;;3.00;;
18973;SDS011;9621;48.690;9.466;2023-07-28T19:27:28;4.03;;;2.88;;
18973;SDS011;9621;48.690;9.466;2023-07-28T19:29:55;3.17;;;2.47;;
18973;SDS011;9621;48.690;9.466;2023-07-28T19:32:24;3.45;;;2.60;;
18973;SDS011;9621;48.690;9.466;2023-07-28T19:34:51;3.55;;;2.70;;
18973;SDS011;9621;48.690;9.466;2023-07-28T19:37:18;2.50;;;2.05;;
18973;SDS011;9621;48.690;9.466;2023-07-28T19:39:45;4.97;;;2.58;;
18973;SDS011;9621;48.690;9.466;2023-07-28T19:42:13;2.85;;;2.55;;
18973;SDS011;9621;48.690;9.466;2023-07-28T19:44:41;4.10;;;2.30;;
18973;SDS011;9621;48.690;9.466;2023-07-28T19:47:07;2.30;;;1.80;;
18973;SDS011;9621;48.690;9.466;2023-07-28T19:49:36;3.15;;;1.73;;
18973;SDS011;9621;48.690;9.466;2023-07-28T19:52:03;2.92;;;2.03;;
18973;SDS011;9621;48.690;9.466;2023-07-28T19:54:31;3.17;;;1.83;;
18973;SDS011;9621;48.690;9.466;2023-07-28T19:57:00;2.58;;;1.90;;
18973;SDS011;9621;48.690;9.466;2023-07-28T19:59:27;3.45;;;1.88;;
18973;SDS011;9621;48.690;9.466;2023-07-28T20:01:54;2.80;;;1.80;;
18973;SDS011;9621;48.690;9.466;2023-07-28T20:04:21;3.70;;;2.30;;
18973;SDS011;9621;48.690;9.466;2023-07-28T20:06:49;3.75;;;1.80;;
18973;SDS011;9621;48.690;9.466;2023-07-28T20:09:16;3.22;;;1.52;;
18973;SDS011;9621;48.690;9.466;2023-07-28T20:11:43;2.25;;;1.80;;
18973;SDS011;9621;48.690;9.466;2023-07-28T20:14:09;3.80;;;1.90;;
18973;SDS011;9621;48.690;9.466;2023-07-28T20:16:36;2.25;;;1.70;;
18973;SDS011;9621;48.690;9.466;2023-07-28T20:19:03;1.73;;;1.60;;
18973;SDS011;9621;48.690;9.466;2023-07-28T20:21:31;3.35;;;1.80;;
18973;SDS011;9621;48.690;9.466;2023-07-28T20:23:59;3.35;;;1.90;;
18973;SDS011;9621;48.690;9.466;2023-07-28T20:26:25;2.55;;;1.40;;
18973;SDS011;9621;48.690;9.466;2023-07-28T20:28:53;2.30;;;1.60;;
18973;SDS011;9621;48.690;9.466;2023-07-28T20:31:21;3.28;;;1.58;;
18973;SDS011;9621;48.690;9.466;2023-07-28T20:33:47;3.42;;;1.55;;
18973;SDS011;9621;48.690;9.466;2023-07-28T20:36:16;2.65;;;1.65;;
18973;SDS011;9621;48.690;9.466;2023-07-28T20:38:43;2.28;;;1.70;;
18973;SDS011;9621;48.690;9.466;2023-07-28T20:41:11;2.40;;;1.70;;
18973;SDS011;9621;48.690;9.466;2023-07-28T20:43:37;3.53;;;1.55;;
18973;SDS011;9621;48.690;9.466;2023-07-28T20:46:04;6.43;;;1.77;;
18973;SDS011;9621;48.690;9.466;2023-07-28T20:48:31;1.92;;;1.55;;
18973;SDS011;9621;48.690;9.466;2023-07-28T20:50:58;2.60;;;1.85;;
18973;SDS011;9621;48.690;9.466;2023-07-28T20:53:25;2.20;;;2.00;;
18973;SDS011;9621;48.690;9.466;2023-07-28T20:55:53;3.83;;;2.05;;
18973;SDS011;9621;48.690;9.466;2023-07-28T20:58:21;5.55;;;1.50;;
18973;SDS011;9621;48.690;9.466;2023-07-28T21:00:49;3.92;;;2.10;;
18973;SDS011;9621;48.690;9.466;2023-07-28T21:03:17;5.32;;;1.75;;
18973;SDS011;9621;48.690;9.466;2023-07-28T21:05:45;3.47;;;1.55;;
18973;SDS011;9621;48.690;9.466;2023-07-28T21:08:12;2.25;;;1.70;;
18973;SDS011;9621;48.690;9.466;2023-07-28T21:10:39;1.77;;;1.50;;
18973;SDS011;9621;48.690;9.466;2023-07-28T21:13:06;5.20;;;1.80;;
18973;SDS011;9621;48.690;9.466;2023-07-28T21:15:35;3.45;;;1.70;;
18973;SDS011;9621;48.690;9.466;2023-07-28T21:18:02;2.50;;;1.80;;
18973;SDS011;9621;48.690;9.466;2023-07-28T21:20:29;7.05;;;1.73;;
18973;SDS011;9621;48.690;9.466;2023-07-28T21:22:56;3.63;;;1.80;;
18973;SDS011;9621;48.690;9.466;2023-07-28T21:25:23;2.53;;;1.80;;
18973;SDS011;9621;48.690;9.466;2023-07-28T21:27:50;2.22;;;1.90;;
18973;SDS011;9621;48.690;9.466;2023-07-28T21:30:17;3.95;;;1.70;;
18973;SDS011;9621;48.690;9.466;2023-07-28T21:32:45;4.18;;;1.92;;
18973;SDS011;9621;48.690;9.466;2023-07-28T21:35:12;3.63;;;2.00;;
18973;SDS011;9621;48.690;9.466;2023-07-28T21:37:39;3.83;;;1.67;;
18973;SDS011;9621;48.690;9.466;2023-07-28T21:40:06;2.13;;;1.50;;
18973;SDS011;9621;48.690;9.466;2023-07-28T21:42:34;6.35;;;1.70;;
18973;SDS011;9621;48.690;9.466;2023-07-28T21:45:01;2.22;;;1.80;;
18973;SDS011;9621;48.690;9.466;2023-07-28T21:47:27;14.80;;;6.53;;
18973;SDS011;9621;48.690;9.466;2023-07-28T21:49:55;8.40;;;4.63;;
18973;SDS011;9621;48.690;9.466;2023-07-28T21:52:23;3.88;;;2.78;;
18973;SDS011;9621;48.690;9.466;2023-07-28T21:54:50;4.60;;;2.50;;
18973;SDS011;9621;48.690;9.466;2023-07-28T21:57:16;8.68;;;2.70;;
18973;SDS011;9621;48.690;9.466;2023-07-28T21:59:43;3.72;;;1.90;;
18973;SDS011;9621;48.690;9.466;2023-07-28T22:02:10;2.22;;;1.58;;
18973;SDS011;9621;48.690;9.466;2023-07-28T22:04:38;1.90;;;1.40;;
18973;SDS011;9621;48.690;9.466;2023-07-28T22:07:06;1.85;;;1.50;;
18973;SDS011;9621;48.690;9.466;2023-07-28T22:09:33;2.08;;;1.48;;